Time;durP1;ratioP1;P1;durP2;ratioP2;P2;SDS_P1;SDS_P2;PMS_P1;PMS_P2;Temp;Humidity;BMP_temperature;BMP_pressure;BME280_temperature;BME280_humidity;BME280_pressure;Samples;Min_cycle;Max_cycle;Signal;HPM_P1;HPM_P2
2022/08/27 00:01:28;;;;;;;;;;;563.80;2432.00;;;;;;5070401;28;19912;-57
2022/08/27 00:03:54;;;;;;;;;;;563.70;2432.00;;;;;;5070790;28;20011;-57
2022/08/27 00:06:20;;;;;;;;;;;563.70;2432.00;;;;;;5070284;28;19921;-57
2022/08/27 00:08:46;;;;;;;;;;;563.60;2432.00;;;;;;5070851;28;20400;-57
2022/08/27 00:11:12;;;;;;;;;;;563.70;2432.00;;;;;;5073054;28;19962;-57
2022/08/27 00:13:38;;;;;;;;;;;563.80;2432.00;;;;;;5074322;28;19908;-57
2022/08/27 00:16:05;;;;;;;;;;;563.80;2432.00;;;;;;5074632;28;19975;-58
2022/08/27 00:18:31;;;;;;;;;;;563.80;2432.00;;;;;;5074416;28;19908;-56
2022/08/27 00:20:57;;;;;;;;;;;563.90;2432.00;;;;;;5074531;28;19931;-57
2022/08/27 00:23:23;;;;;;;;;;;563.80;2432.00;;;;;;5074424;28;20332;-56
2022/08/27 00:25:48;;;;;;;;;;;563.90;2432.00;;;;;;5074121;28;19927;-57
2022/08/27 00:28:14;;;;;;;;;;;563.90;2432.00;;;;;;5074587;28;20003;-57
2022/08/27 00:30:40;;;;;;;;;;;563.90;2432.00;;;;;;5074059;28;19938;-57
2022/08/27 00:33:06;;;;;;;;;;;563.80;2432.00;;;;;;5074218;28;19913;-58
2022/08/27 00:35:32;;;;;;;;;;;563.80;2432.00;;;;;;5074209;28;19912;-56
2022/08/27 00:37:57;;;;;;;;;;;563.80;2432.00;;;;;;5073904;28;19948;-57
2022/08/27 00:40:23;;;;;;;;;;;563.70;2432.00;;;;;;5074286;28;19916;-57
2022/08/27 00:42:49;;;;;;;;;;;563.70;2432.00;;;;;;5074038;28;19974;-54
2022/08/27 00:45:16;;;;;;;;;;;563.70;2432.00;;;;;;5073885;28;20310;-57
2022/08/27 00:47:44;;;;;;;;;;;563.70;2432.00;;;;;;5073847;28;20385;-58
2022/08/27 00:50:11;;;;;;;;;;;563.60;2432.00;;;;;;5073718;28;19958;-56
2022/08/27 00:52:43;;;;;;;;;;;563.60;2432.00;;;;;;5073843;28;19916;-57
2022/08/27 00:55:10;;;;;;;;;;;563.60;2432.00;;;;;;5073601;28;20007;-57
2022/08/27 00:57:37;;;;;;;;;;;563.60;2432.00;;;;;;5073846;28;19908;-57
2022/08/27 01:00:05;;;;;;;;;;;563.60;2432.00;;;;;;5073686;28;20354;-58
2022/08/27 01:02:31;;;;;;;;;;;563.60;2432.00;;;;;;5073440;28;20003;-58
2022/08/27 01:05:00;;;;;;;;;;;563.60;2432.00;;;;;;5073528;28;19927;-57
2022/08/27 01:07:26;;;;;;;;;;;564.00;2432.00;;;;;;5073656;28;19935;-58
2022/08/27 01:09:54;;;;;;;;;;;563.60;2432.00;;;;;;5073522;28;19991;-58
2022/08/27 01:12:19;;;;;;;;;;;563.50;2432.00;;;;;;5073359;28;20239;-56
2022/08/27 01:14:46;;;;;;;;;;;563.50;2432.00;;;;;;5073566;28;19912;-58
2022/08/27 01:17:12;;;;;;;;;;;563.50;2432.00;;;;;;5073359;28;20326;-55
2022/08/27 01:19:37;;;;;;;;;;;563.50;2432.00;;;;;;5073284;28;20310;-57
2022/08/27 01:22:06;;;;;;;;;;;563.50;2432.00;;;;;;5073239;28;19908;-57
2022/08/27 01:24:37;;;;;;;;;;;563.40;2432.00;;;;;;5072941;28;20003;-56
2022/08/27 01:27:03;;;;;;;;;;;563.40;2432.00;;;;;;5073198;28;19913;-56
2022/08/27 01:29:30;;;;;;;;;;;563.40;2432.00;;;;;;5073115;28;19913;-57
2022/08/27 01:32:05;;;;;;;;;;;563.40;2432.00;;;;;;5072995;28;19913;-58
2022/08/27 01:34:31;;;;;;;;;;;563.40;2432.00;;;;;;5072871;28;19995;-57
2022/08/27 01:36:57;;;;;;;;;;;563.30;2432.00;;;;;;5073112;28;20370;-57
2022/08/27 01:39:23;;;;;;;;;;;563.30;2432.00;;;;;;5072695;28;20065;-57
2022/08/27 01:41:48;;;;;;;;;;;563.30;2432.00;;;;;;5072938;28;19956;-58
2022/08/27 01:44:14;;;;;;;;;;;563.30;2432.00;;;;;;5073051;28;19917;-57
2022/08/27 01:46:39;;;;;;;;;;;563.20;2432.00;;;;;;5072784;28;20425;-56
2022/08/27 01:49:05;;;;;;;;;;;563.20;2432.00;;;;;;5072817;28;20354;-57
2022/08/27 01:51:30;;;;;;;;;;;563.20;2432.00;;;;;;5072644;28;19913;-56
2022/08/27 01:53:56;;;;;;;;;;;563.20;2432.00;;;;;;5072880;28;20365;-57
2022/08/27 01:56:22;;;;;;;;;;;563.20;2432.00;;;;;;5072467;28;20373;-57
2022/08/27 01:58:47;;;;;;;;;;;538.50;2406.40;;;;;;5072625;28;19913;-57
2022/08/27 02:01:15;;;;;;;;;;;538.40;2406.40;;;;;;5072495;28;19962;-57
2022/08/27 02:03:41;;;;;;;;;;;538.40;2406.40;;;;;;5072251;28;20362;-58
2022/08/27 02:06:08;;;;;;;;;;;538.30;2406.40;;;;;;5072305;28;19921;-57
2022/08/27 02:08:33;;;;;;;;;;;538.30;2406.40;;;;;;5072461;28;19909;-56
2022/08/27 02:10:59;;;;;;;;;;;538.30;2406.40;;;;;;5072175;28;19920;-57
2022/08/27 02:13:25;;;;;;;;;;;538.30;2406.40;;;;;;5072609;28;19909;-56
2022/08/27 02:15:51;;;;;;;;;;;538.30;2406.40;;;;;;5072069;28;19942;-56
2022/08/27 02:18:17;;;;;;;;;;;538.30;2406.40;;;;;;5072374;28;19915;-57
2022/08/27 02:20:43;;;;;;;;;;;538.30;2406.40;;;;;;5072023;28;19999;-58
2022/08/27 02:23:09;;;;;;;;;;;538.20;2406.40;;;;;;5072366;28;20321;-57
2022/08/27 02:25:35;;;;;;;;;;;538.20;2406.40;;;;;;5072217;28;19920;-54
2022/08/27 02:28:01;;;;;;;;;;;538.20;2406.40;;;;;;5072006;28;20277;-57
2022/08/27 02:30:27;;;;;;;;;;;538.20;2406.40;;;;;;5071867;28;19920;-58
2022/08/27 02:32:53;;;;;;;;;;;538.20;2406.40;;;;;;5071277;28;19912;-57
2022/08/27 02:35:20;;;;;;;;;;;538.20;2406.40;;;;;;5071780;28;20340;-57
2022/08/27 02:37:46;;;;;;;;;;;538.20;2406.40;;;;;;5071951;28;19909;-57
2022/08/27 02:40:17;;;;;;;;;;;538.20;2406.40;;;;;;5071517;28;20365;-56
2022/08/27 02:42:43;;;;;;;;;;;538.10;2406.40;;;;;;5071895;28;19955;-57
2022/08/27 02:45:09;;;;;;;;;;;538.10;2406.40;;;;;;5071376;28;20129;-57
2022/08/27 02:47:35;;;;;;;;;;;538.00;2406.40;;;;;;5071779;28;19912;-57
2022/08/27 02:50:01;;;;;;;;;;;538.00;2406.40;;;;;;5071467;28;19909;-57
2022/08/27 02:52:28;;;;;;;;;;;538.00;2406.40;;;;;;5071583;28;19908;-57
2022/08/27 02:54:54;;;;;;;;;;;538.00;2406.40;;;;;;5071700;28;19908;-56
2022/08/27 02:57:20;;;;;;;;;;;538.00;2406.40;;;;;;5071395;28;20330;-57
2022/08/27 02:59:46;;;;;;;;;;;538.00;2406.40;;;;;;5071330;28;19917;-57
2022/08/27 03:02:13;;;;;;;;;;;538.00;2406.40;;;;;;5071170;28;19939;-57
2022/08/27 03:04:39;;;;;;;;;;;538.00;2406.40;;;;;;5070956;28;19920;-57
2022/08/27 03:07:05;;;;;;;;;;;538.00;2406.40;;;;;;5071368;28;19912;-58
2022/08/27 03:09:30;;;;;;;;;;;537.90;2406.40;;;;;;5071116;28;20424;-56
2022/08/27 03:11:57;;;;;;;;;;;538.00;2406.40;;;;;;5071231;28;19909;-57
2022/08/27 03:14:22;;;;;;;;;;;537.90;2406.40;;;;;;5071210;28;19939;-57
2022/08/27 03:16:48;;;;;;;;;;;537.90;2406.40;;;;;;5071057;28;20405;-57
2022/08/27 03:19:14;;;;;;;;;;;537.90;2406.40;;;;;;5071222;28;19975;-56
2022/08/27 03:21:39;;;;;;;;;;;537.90;2406.40;;;;;;5070929;28;19919;-57
2022/08/27 03:24:05;;;;;;;;;;;537.90;2406.40;;;;;;5071284;28;19909;-58
2022/08/27 03:26:31;;;;;;;;;;;537.90;2406.40;;;;;;5070924;28;20339;-56
2022/08/27 03:28:57;;;;;;;;;;;537.80;2406.40;;;;;;5071122;28;20005;-57
2022/08/27 03:31:26;;;;;;;;;;;537.80;2406.40;;;;;;5070682;28;19913;-55
2022/08/27 03:33:53;;;;;;;;;;;537.80;2406.40;;;;;;5070828;28;20289;-56
2022/08/27 03:36:19;;;;;;;;;;;537.80;2406.40;;;;;;5070785;28;19912;-57
2022/08/27 03:38:45;;;;;;;;;;;537.80;2406.40;;;;;;5070928;28;19919;-58
2022/08/27 03:41:12;;;;;;;;;;;537.70;2406.40;;;;;;5070901;28;19908;-56
2022/08/27 03:43:38;;;;;;;;;;;537.80;2406.40;;;;;;5071043;28;19909;-58
2022/08/27 03:46:03;;;;;;;;;;;537.60;2406.40;;;;;;5070002;28;19916;-57
2022/08/27 03:48:30;;;;;;;;;;;537.70;2406.40;;;;;;5070768;28;19916;-57
2022/08/27 03:50:56;;;;;;;;;;;537.70;2406.40;;;;;;5070986;28;19908;-57
2022/08/27 03:53:21;;;;;;;;;;;537.60;2406.40;;;;;;5070686;28;19908;-57
2022/08/27 03:55:47;;;;;;;;;;;537.60;2406.40;;;;;;5070699;28;19954;-57
2022/08/27 03:58:13;;;;;;;;;;;537.70;2406.40;;;;;;5070786;28;19947;-57
2022/08/27 04:00:39;;;;;;;;;;;537.70;2406.40;;;;;;5070590;28;20387;-56
2022/08/27 04:03:05;;;;;;;;;;;537.80;2406.40;;;;;;5070982;28;19935;-56
2022/08/27 04:05:32;;;;;;;;;;;537.80;2406.40;;;;;;5070250;28;20278;-57
2022/08/27 04:07:57;;;;;;;;;;;537.80;2406.40;;;;;;5070742;28;19908;-58
2022/08/27 04:10:23;;;;;;;;;;;537.80;2406.40;;;;;;5070552;28;19909;-56
2022/08/27 04:12:49;;;;;;;;;;;537.80;2406.40;;;;;;5070426;28;19939;-56
2022/08/27 04:15:15;;;;;;;;;;;537.90;2406.40;;;;;;5070859;28;19909;-57
2022/08/27 04:17:40;;;;;;;;;;;537.90;2406.40;;;;;;5070588;28;19908;-56
2022/08/27 04:20:07;;;;;;;;;;;538.00;2406.40;;;;;;5070704;28;19916;-57
2022/08/27 04:22:32;;;;;;;;;;;538.10;2406.40;;;;;;5070636;28;20316;-58
2022/08/27 04:24:58;;;;;;;;;;;538.20;2406.40;;;;;;5070463;28;19921;-57
2022/08/27 04:27:25;;;;;;;;;;;538.20;2406.40;;;;;;5070614;28;19908;-54
2022/08/27 04:29:57;;;;;;;;;;;538.40;2406.40;;;;;;5070355;28;20266;-57
2022/08/27 04:32:24;;;;;;;;;;;538.50;2406.40;;;;;;5070397;28;20358;-56
2022/08/27 04:34:56;;;;;;;;;;;563.30;2432.00;;;;;;5070347;28;20366;-57
2022/08/27 04:37:23;;;;;;;;;;;563.50;2432.00;;;;;;5070312;28;19908;-57
2022/08/27 04:39:49;;;;;;;;;;;563.60;2432.00;;;;;;5070408;28;20012;-59
2022/08/27 04:42:16;;;;;;;;;;;563.70;2432.00;;;;;;5070681;28;20305;-56
2022/08/27 04:44:42;;;;;;;;;;;563.70;2432.00;;;;;;5070096;28;20263;-56
2022/08/27 04:47:08;;;;;;;;;;;563.80;2432.00;;;;;;5070360;28;19916;-57
2022/08/27 04:49:34;;;;;;;;;;;563.90;2432.00;;;;;;5070485;28;19915;-56
2022/08/27 04:52:00;;;;;;;;;;;564.00;2432.00;;;;;;5070140;28;19927;-56
2022/08/27 04:54:25;;;;;;;;;;;564.10;2432.00;;;;;;5070524;28;19908;-57
2022/08/27 04:56:51;;;;;;;;;;;588.80;2432.00;;;;;;5071973;28;20377;-57
2022/08/27 04:59:16;;;;;;;;;;;588.90;2432.00;;;;;;5073835;28;19909;-56
2022/08/27 05:01:42;;;;;;;;;;;589.10;2432.00;;;;;;5073452;28;19913;-57
2022/08/27 05:04:10;;;;;;;;;;;589.60;2432.00;;;;;;5073738;28;20402;-57
2022/08/27 05:06:35;;;;;;;;;;;615.30;2432.00;;;;;;5073487;28;19923;-56
2022/08/27 05:09:01;;;;;;;;;;;640.40;2432.00;;;;;;5073686;28;20358;-57
2022/08/27 05:11:31;;;;;;;;;;;665.70;2432.00;;;;;;5073454;28;19915;-57
2022/08/27 05:13:57;;;;;;;;;;;;;;;;;;5073741;28;19912;-56
2022/08/27 05:16:23;;;;;;;;;;;691.40;2432.00;;;;;;5073267;28;19909;-56
2022/08/27 05:18:50;;;;;;;;;;;717.70;2432.00;;;;;;5073310;28;19917;-57
2022/08/27 05:21:17;;;;;;;;;;;743.20;2380.80;;;;;;5073379;28;19966;-57
2022/08/27 05:23:43;;;;;;;;;;;768.90;2201.60;;;;;;5073188;28;20359;-57
2022/08/27 05:26:09;;;;;;;;;;;794.30;2073.60;;;;;;5073207;28;19920;-56
2022/08/27 05:28:34;;;;;;;;;;;819.30;2022.40;;;;;;5073237;28;20278;-56
2022/08/27 05:31:04;;;;;;;;;;;819.60;1971.20;;;;;;5073023;28;19944;-57
2022/08/27 05:33:29;;;;;;;;;;;819.90;1920.00;;;;;;5073016;28;19917;-54
2022/08/27 05:35:56;;;;;;;;;;;845.50;1843.20;;;;;;5073069;28;19916;-55
2022/08/27 05:38:23;;;;;;;;;;;870.80;1715.20;;;;;;5072915;28;19919;-58
2022/08/27 05:40:49;;;;;;;;;;;871.30;1664.00;;;;;;5072647;28;19913;-55
2022/08/27 05:43:16;;;;;;;;;;;896.40;1638.40;;;;;;5073132;28;19916;-57
2022/08/27 05:45:42;;;;;;;;;;;921.60;1612.80;;;;;;5072776;28;19940;-54
2022/08/27 05:48:10;;;;;;;;;;;921.90;1561.60;;;;;;5072643;28;20347;-55
2022/08/27 05:50:39;;;;;;;;;;;922.30;1536.00;;;;;;5072828;28;19908;-54
2022/08/27 05:53:05;;;;;;;;;;;922.50;1510.40;;;;;;5072680;28;19913;-56
2022/08/27 05:55:35;;;;;;;;;;;947.40;1510.40;;;;;;5072694;28;19954;-55
2022/08/27 05:58:01;;;;;;;;;;;947.90;1459.20;;;;;;5072558;28;19915;-57
2022/08/27 06:03:11;;;;;;;;;;;948.00;1433.60;;;;;;5072671;28;19935;-57
2022/08/27 06:05:37;;;;;;;;;;;947.70;1459.20;;;;;;5072373;28;19925;-58
2022/08/27 06:08:03;;;;;;;;;;;947.60;1459.20;;;;;;5071479;28;19962;-58
2022/08/27 06:10:28;;;;;;;;;;;922.10;1536.00;;;;;;5072167;28;19955;-58
2022/08/27 06:12:54;;;;;;;;;;;921.90;1536.00;;;;;;5072241;28;19917;-55
2022/08/27 06:15:19;;;;;;;;;;;921.70;1561.60;;;;;;5072315;28;19908;-58
2022/08/27 06:17:45;;;;;;;;;;;922.00;1561.60;;;;;;5070774;28;19912;-57
2022/08/27 06:20:10;;;;;;;;;;;947.50;1484.80;;;;;;5072083;28;19908;-58
2022/08/27 06:22:36;;;;;;;;;;;948.00;1484.80;;;;;;5072458;28;19908;-58
2022/08/27 06:25:02;;;;;;;;;;;973.30;1459.20;;;;;;5071854;28;19916;-58
2022/08/27 06:27:28;;;;;;;;;;;998.80;1408.00;;;;;;5072051;28;19908;-59
2022/08/27 06:29:53;;;;;;;;;;;1024.30;1356.80;;;;;;5071846;28;19908;-59
2022/08/27 06:32:19;;;;;;;;;;;1049.60;1331.20;;;;;;5071830;28;19916;-58
2022/08/27 06:34:46;;;;;;;;;;;1049.70;1356.80;;;;;;5072080;28;20287;-56
2022/08/27 06:37:11;;;;;;;;;;;1049.90;1331.20;;;;;;5071655;28;19943;-57
2022/08/27 06:39:38;;;;;;;;;;;1050.50;1305.60;;;;;;5072005;28;20330;-57
2022/08/27 06:42:04;;;;;;;;;;;1050.10;1305.60;;;;;;5071675;28;19909;-57
2022/08/27 06:44:30;;;;;;;;;;;1075.30;1280.00;;;;;;5071930;28;19917;-57
2022/08/27 06:46:55;;;;;;;;;;;1050.50;1280.00;;;;;;5071883;28;20285;-58
2022/08/27 06:49:22;;;;;;;;;;;1050.20;1305.60;;;;;;5071067;28;19995;-57
2022/08/27 06:51:48;;;;;;;;;;;1050.50;1280.00;;;;;;5071425;28;19927;-56
2022/08/27 06:54:14;;;;;;;;;;;1075.50;1280.00;;;;;;5071848;28;20013;-56
2022/08/27 06:56:40;;;;;;;;;;;1100.80;1280.00;;;;;;5071254;28;19912;-57
2022/08/27 06:59:07;;;;;;;;;;;1101.30;1228.80;;;;;;5071630;28;19932;-58
2022/08/27 07:01:35;;;;;;;;;;;1101.20;1254.40;;;;;;5068092;28;19945;-58
2022/08/27 07:04:03;;;;;;;;;;;1101.30;1228.80;;;;;;5069262;28;19955;-58
2022/08/27 07:06:29;;;;;;;;;;;1101.60;1203.20;;;;;;5068823;28;19984;-57
2022/08/27 07:08:55;;;;;;;;;;;1127.10;1203.20;;;;;;5069250;28;19916;-58
2022/08/27 07:11:21;;;;;;;;;;;1177.60;1126.40;;;;;;5069024;28;19909;-57
2022/08/27 07:13:47;;;;;;;;;;;1203.20;1100.80;;;;;;5068929;28;19915;-57
2022/08/27 07:16:14;;;;;;;;;;;1178.30;1075.20;;;;;;5069168;28;19913;-60
2022/08/27 07:18:40;;;;;;;;;;;1203.70;1075.20;;;;;;5068660;28;19916;-59
2022/08/27 07:21:06;;;;;;;;;;;1178.30;1100.80;;;;;;5069035;28;19916;-59
2022/08/27 07:23:32;;;;;;;;;;;1203.20;1100.80;;;;;;5068961;28;19943;-57
2022/08/27 07:25:58;;;;;;;;;;;1203.60;1075.20;;;;;;5068618;28;19942;-58
2022/08/27 07:28:24;;;;;;;;;;;1228.80;1100.80;;;;;;5069145;28;20421;-58
2022/08/27 07:30:50;;;;;;;;;;;1203.80;1075.20;;;;;;5068711;28;20000;-59
2022/08/27 07:33:16;;;;;;;;;;;1203.60;1100.80;;;;;;5069160;28;20271;-59
2022/08/27 07:35:41;;;;;;;;;;;1203.80;1100.80;;;;;;5068882;28;19962;-59
2022/08/27 07:38:09;;;;;;;;;;;1203.30;1075.20;;;;;;5069324;28;19936;-58
2022/08/27 07:40:35;;;;;;;;;;;1178.50;1049.60;;;;;;5068421;28;20370;-60
2022/08/27 07:45:46;;;;;;;;;;;1228.80;1049.60;;;;;;5070984;28;19923;-59
2022/08/27 07:48:11;;;;;;;;;;;1229.40;998.40;;;;;;5070703;28;19915;-60
2022/08/27 07:50:37;;;;;;;;;;;1203.40;1049.60;;;;;;5070814;28;19912;-59
2022/08/27 07:53:02;;;;;;;;;;;1229.20;1049.60;;;;;;5070763;28;20349;-60
2022/08/27 07:55:28;;;;;;;;;;;1229.00;1024.00;;;;;;5070660;28;19915;-56
2022/08/27 07:57:54;;;;;;;;;;;1229.40;1024.00;;;;;;5067754;28;19912;-59
2022/08/27 08:00:20;;;;;;;;;;;1203.40;1024.00;;;;;;5068496;28;19977;-59
2022/08/27 08:02:46;;;;;;;;;;;1228.90;998.40;;;;;;5068832;28;19920;-58
2022/08/27 08:05:14;;;;;;;;;;;1254.50;1024.00;;;;;;5068184;28;19928;-58
2022/08/27 08:07:40;;;;;;;;;;;1228.90;998.40;;;;;;5068512;28;19960;-59
2022/08/27 08:10:07;;;;;;;;;;;1229.00;1024.00;;;;;;5068278;28;20358;-59
2022/08/27 08:12:34;;;;;;;;;;;1229.70;998.40;;;;;;5068405;28;20342;-58
2022/08/27 08:14:59;;;;;;;;;;;1254.60;998.40;;;;;;5068580;28;19924;-60
2022/08/27 08:17:25;;;;;;;;;;;1203.90;998.40;;;;;;5068645;28;19920;-56
2022/08/27 08:19:52;;;;;;;;;;;1229.40;972.80;;;;;;5068210;28;19916;-58
2022/08/27 08:22:18;;;;;;;;;;;1229.40;998.40;;;;;;5068106;28;19908;-59
2022/08/27 08:24:44;;;;;;;;;;;1255.00;947.20;;;;;;5068761;28;19912;-58
2022/08/27 08:27:10;;;;;;;;;;;1255.00;972.80;;;;;;5068180;28;19950;-59
2022/08/27 08:29:36;;;;;;;;;;;1255.30;947.20;;;;;;5068389;28;19919;-59
2022/08/27 08:32:02;;;;;;;;;;;1280.20;947.20;;;;;;5070545;28;20400;-58
2022/08/27 08:34:28;;;;;;;;;;;1254.90;947.20;;;;;;5073127;28;19915;-59
2022/08/27 08:36:54;;;;;;;;;;;1229.50;972.80;;;;;;5074028;28;19921;-57
2022/08/27 08:39:20;;;;;;;;;;;1203.60;998.40;;;;;;5074038;28;19912;-60
2022/08/27 08:41:57;;;;;;;;;;;1203.20;1024.00;;;;;;5074275;28;19908;-58
2022/08/27 08:44:47;;;;;;;;;;;1152.10;1049.60;;;;;;5073954;28;19915;-55
2022/08/27 08:47:19;;;;;;;;;;;1101.50;1075.20;;;;;;5073787;28;19995;-58
2022/08/27 08:49:47;;;;;;;;;;;1049.80;1177.60;;;;;;5074173;28;19909;-57
2022/08/27 08:52:19;;;;;;;;;;;999.10;1228.80;;;;;;5073715;28;20385;-59
2022/08/27 08:54:44;;;;;;;;;;;973.70;1228.80;;;;;;5074016;28;19970;-57
2022/08/27 08:57:17;;;;;;;;;;;998.50;1280.00;;;;;;5073544;28;20321;-58
2022/08/27 08:59:46;;;;;;;;;;;973.70;1305.60;;;;;;5073598;28;19909;-56
2022/08/27 09:02:13;;;;;;;;;;;973.40;1305.60;;;;;;5072037;28;19916;-57
2022/08/27 09:04:39;;;;;;;;;;;973.40;1305.60;;;;;;5071475;28;19928;-57
2022/08/27 09:07:20;;;;;;;;;;;973.00;1254.40;;;;;;5071889;28;19908;-57
2022/08/27 09:09:49;;;;;;;;;;;972.80;1254.40;;;;;;5071548;28;19919;-57
2022/08/27 09:12:18;;;;;;;;;;;947.90;1305.60;;;;;;5071337;28;19916;-57
2022/08/27 09:14:55;;;;;;;;;;;948.10;1331.20;;;;;;5070965;28;19917;-57
2022/08/27 09:17:20;;;;;;;;;;;947.70;1305.60;;;;;;5071290;28;19954;-57
2022/08/27 09:19:46;;;;;;;;;;;947.70;1305.60;;;;;;5071417;28;19948;-58
2022/08/27 09:22:18;;;;;;;;;;;947.40;1305.60;;;;;;5071129;28;19912;-58
2022/08/27 09:24:51;;;;;;;;;;;921.60;1331.20;;;;;;5071126;28;20579;-56
2022/08/27 09:27:18;;;;;;;;;;;896.10;1356.80;;;;;;5071149;28;20278;-57
2022/08/27 09:29:48;;;;;;;;;;;896.70;1331.20;;;;;;5070632;28;19914;-57
2022/08/27 09:32:13;;;;;;;;;;;921.80;1382.40;;;;;;5071123;28;19912;-56
2022/08/27 09:34:41;;;;;;;;;;;921.70;1408.00;;;;;;5070870;28;19923;-57
2022/08/27 09:37:06;;;;;;;;;;;921.60;1382.40;;;;;;5071090;28;19912;-56
2022/08/27 09:39:52;;;;;;;;;;;922.00;1356.80;;;;;;5070947;28;19909;-57
2022/08/27 09:42:38;;;;;;;;;;;896.60;1356.80;;;;;;5069830;28;19954;-58
2022/08/27 09:45:08;;;;;;;;;;;921.70;1382.40;;;;;;5070448;28;19917;-58
2022/08/27 09:47:41;;;;;;;;;;;896.00;1382.40;;;;;;5070872;28;19955;-56
2022/08/27 09:50:07;;;;;;;;;;;870.70;1382.40;;;;;;5071026;28;19912;-57
2022/08/27 09:52:35;;;;;;;;;;;870.70;1382.40;;;;;;5072800;28;20396;-58
2022/08/27 09:55:01;;;;;;;;;;;871.20;1382.40;;;;;;5072572;28;19923;-57
2022/08/27 09:57:34;;;;;;;;;;;896.00;1305.60;;;;;;5072482;28;19908;-57
2022/08/27 10:00:00;;;;;;;;;;;896.30;1305.60;;;;;;5072438;28;19961;-57
2022/08/27 10:02:26;;;;;;;;;;;871.20;1305.60;;;;;;5072501;28;19912;-58
2022/08/27 10:04:53;;;;;;;;;;;870.90;1331.20;;;;;;5072102;28;19921;-57
2022/08/27 10:07:21;;;;;;;;;;;870.70;1305.60;;;;;;5072606;28;19951;-57
2022/08/27 10:09:59;;;;;;;;;;;870.90;1228.80;;;;;;5072690;28;20302;-56
2022/08/27 10:12:43;;;;;;;;;;;871.30;1280.00;;;;;;5072349;28;19908;-57
2022/08/27 10:15:10;;;;;;;;;;;871.10;1177.60;;;;;;5072121;28;19916;-56
2022/08/27 10:17:56;;;;;;;;;;;896.10;1177.60;;;;;;5069730;28;19913;-57
2022/08/27 10:20:22;;;;;;;;;;;896.20;1228.80;;;;;;5069716;28;19915;-57
2022/08/27 10:22:53;;;;;;;;;;;896.40;1305.60;;;;;;5070201;28;19927;-56
2022/08/27 10:25:28;;;;;;;;;;;896.40;1177.60;;;;;;5070043;28;20054;-58
2022/08/27 10:28:26;;;;;;;;;;;871.20;1177.60;;;;;;5069915;28;19913;-56
2022/08/27 10:30:54;;;;;;;;;;;896.30;1177.60;;;;;;5045953;28;20271;-57
2022/08/27 10:33:33;;;;;;;;;;;871.30;1152.00;;;;;;5070692;28;20294;-57
2022/08/27 10:36:02;;;;;;;;;;;871.30;1203.20;;;;;;5071688;28;19963;-57
2022/08/27 10:38:27;;;;;;;;;;;896.00;1228.80;;;;;;5071846;28;19908;-56
2022/08/27 10:40:55;;;;;;;;;;;896.20;1254.40;;;;;;5071622;28;20049;-56
2022/08/27 10:43:21;;;;;;;;;;;896.20;1203.20;;;;;;5071413;28;20015;-56
2022/08/27 10:45:54;;;;;;;;;;;896.00;1203.20;;;;;;5071916;28;19997;-56
2022/08/27 10:48:28;;;;;;;;;;;896.20;1177.60;;;;;;5071509;28;20001;-57
2022/08/27 10:50:54;;;;;;;;;;;896.00;1100.80;;;;;;5071734;28;19909;-57
2022/08/27 10:53:19;;;;;;;;;;;896.30;1203.20;;;;;;5071341;28;19923;-56
2022/08/27 10:55:50;;;;;;;;;;;896.30;1177.60;;;;;;5071251;28;19917;-57
2022/08/27 10:58:48;;;;;;;;;;;870.90;1177.60;;;;;;5071401;28;19909;-56
2022/08/27 11:01:26;;;;;;;;;;;871.10;1177.60;;;;;;5029276;28;20056;-57
2022/08/27 11:03:59;;;;;;;;;;;871.20;1152.00;;;;;;5029252;28;19913;-57
2022/08/27 11:06:27;;;;;;;;;;;870.80;1075.20;;;;;;5029334;28;20015;-58
2022/08/27 11:08:59;;;;;;;;;;;870.90;1100.80;;;;;;5029150;28;19948;-58
2022/08/27 11:11:45;;;;;;;;;;;871.00;1152.00;;;;;;5029257;28;19944;-57
2022/08/27 11:14:31;;;;;;;;;;;871.00;1177.60;;;;;;5028699;28;19916;-57
2022/08/27 11:17:02;;;;;;;;;;;871.10;1177.60;;;;;;5029229;28;19924;-57
2022/08/27 11:19:32;;;;;;;;;;;871.10;1228.80;;;;;;5029253;28;20003;-57
2022/08/27 11:22:17;;;;;;;;;;;870.50;1203.20;;;;;;5029211;28;20371;-57
2022/08/27 11:25:06;;;;;;;;;;;870.50;1228.80;;;;;;5028763;28;19988;-56
2022/08/27 11:27:33;;;;;;;;;;;870.50;1203.20;;;;;;4950737;28;19914;-57
2022/08/27 11:30:03;;;;;;;;;;;870.60;1228.80;;;;;;4950579;29;19926;-56
2022/08/27 11:32:32;;;;;;;;;;;870.70;1228.80;;;;;;4950866;28;19925;-57
2022/08/27 11:35:21;;;;;;;;;;;870.70;1228.80;;;;;;4949332;28;20017;-56
2022/08/27 11:37:49;;;;;;;;;;;870.80;1254.40;;;;;;4889608;29;20270;-57
2022/08/27 11:40:34;;;;;;;;;;;870.50;1254.40;;;;;;4891795;29;19962;-56
2022/08/27 11:43:02;;;;;;;;;;;870.50;1203.20;;;;;;4891287;29;19920;-57
2022/08/27 11:45:37;;;;;;;;;;;870.50;1280.00;;;;;;4891662;29;19923;-58
2022/08/27 11:48:22;;;;;;;;;;;870.40;1254.40;;;;;;4890809;29;20324;-56
2022/08/27 11:50:54;;;;;;;;;;;845.70;1280.00;;;;;;4891660;29;19923;-55
2022/08/27 11:53:24;;;;;;;;;;;845.60;1305.60;;;;;;4891319;29;19916;-57
2022/08/27 11:55:52;;;;;;;;;;;845.40;1280.00;;;;;;4890675;29;20318;-58
2022/08/27 11:58:18;;;;;;;;;;;845.60;1305.60;;;;;;4891052;29;19918;-56
2022/08/27 12:00:44;;;;;;;;;;;845.50;1280.00;;;;;;4891018;29;19916;-57
2022/08/27 12:03:19;;;;;;;;;;;845.20;1280.00;;;;;;4890731;29;19996;-57
2022/08/27 12:05:53;;;;;;;;;;;845.40;1280.00;;;;;;4985663;28;20272;-57
2022/08/27 12:08:19;;;;;;;;;;;845.70;1305.60;;;;;;4990775;28;19949;-57
2022/08/27 12:10:50;;;;;;;;;;;845.50;1254.40;;;;;;4990996;28;19961;-56
2022/08/27 12:13:20;;;;;;;;;;;845.60;1254.40;;;;;;4990840;28;19916;-55
2022/08/27 12:16:00;;;;;;;;;;;845.60;1254.40;;;;;;5064370;28;19943;-56
2022/08/27 12:18:26;;;;;;;;;;;845.70;1280.00;;;;;;5072057;28;19962;-55
2022/08/27 12:20:52;;;;;;;;;;;845.50;1280.00;;;;;;5072424;28;19912;-57
2022/08/27 12:23:39;;;;;;;;;;;845.70;1280.00;;;;;;5072541;28;19954;-56
2022/08/27 12:26:19;;;;;;;;;;;845.70;1305.60;;;;;;5072688;28;19916;-57
2022/08/27 12:28:45;;;;;;;;;;;845.50;1331.20;;;;;;5072232;28;19944;-56
2022/08/27 12:31:16;;;;;;;;;;;845.60;1331.20;;;;;;5071684;28;19974;-56
2022/08/27 12:33:44;;;;;;;;;;;845.70;1305.60;;;;;;5072112;28;19912;-55
2022/08/27 12:36:14;;;;;;;;;;;845.70;1280.00;;;;;;5071775;28;20404;-58
2022/08/27 12:38:46;;;;;;;;;;;845.50;1280.00;;;;;;5072201;28;20606;-57
2022/08/27 12:41:22;;;;;;;;;;;845.70;1280.00;;;;;;5071879;28;19954;-57
2022/08/27 12:43:47;;;;;;;;;;;845.50;1331.20;;;;;;5071904;28;19909;-57
2022/08/27 12:46:14;;;;;;;;;;;845.70;1305.60;;;;;;5071289;28;20000;-57
2022/08/27 12:48:42;;;;;;;;;;;845.70;1331.20;;;;;;5071458;28;20042;-57
2022/08/27 12:51:14;;;;;;;;;;;845.40;1305.60;;;;;;5072010;28;20248;-56
2022/08/27 12:53:41;;;;;;;;;;;845.40;1305.60;;;;;;5071753;28;19917;-56
2022/08/27 12:56:25;;;;;;;;;;;845.70;1305.60;;;;;;5071762;28;19927;-55
2022/08/27 12:58:51;;;;;;;;;;;845.70;1280.00;;;;;;5070863;28;19908;-57
2022/08/27 13:01:23;;;;;;;;;;;845.70;1254.40;;;;;;5071449;28;20347;-56
2022/08/27 13:03:51;;;;;;;;;;;845.70;1228.80;;;;;;5071980;28;19941;-57
2022/08/27 13:06:18;;;;;;;;;;;845.40;1228.80;;;;;;5071403;28;19920;-57
2022/08/27 13:08:44;;;;;;;;;;;845.70;1254.40;;;;;;5071550;28;19953;-56
2022/08/27 13:11:16;;;;;;;;;;;845.50;1228.80;;;;;;5071024;28;19920;-56
2022/08/27 13:13:42;;;;;;;;;;;845.50;1228.80;;;;;;5071084;28;19959;-56
2022/08/27 13:16:08;;;;;;;;;;;845.50;1254.40;;;;;;5071429;28;19959;-57
2022/08/27 13:18:34;;;;;;;;;;;845.50;1254.40;;;;;;5070603;28;19939;-57
2022/08/27 13:21:01;;;;;;;;;;;845.70;1254.40;;;;;;5071465;28;19909;-56
2022/08/27 13:23:26;;;;;;;;;;;845.50;1280.00;;;;;;5071015;28;19916;-57
2022/08/27 13:26:10;;;;;;;;;;;845.50;1254.40;;;;;;5071034;28;19908;-55
2022/08/27 13:28:38;;;;;;;;;;;845.50;1254.40;;;;;;5071008;28;19912;-55
2022/08/27 13:31:05;;;;;;;;;;;845.40;1254.40;;;;;;5071054;28;19916;-56
2022/08/27 13:33:32;;;;;;;;;;;845.40;1280.00;;;;;;5071164;28;19939;-57
2022/08/27 13:35:59;;;;;;;;;;;845.40;1254.40;;;;;;5070870;28;20290;-56
2022/08/27 13:38:27;;;;;;;;;;;845.40;1280.00;;;;;;5070592;28;19912;-55
2022/08/27 13:40:54;;;;;;;;;;;845.40;1280.00;;;;;;5070802;28;19916;-57
2022/08/27 13:43:25;;;;;;;;;;;845.50;1254.40;;;;;;5070604;28;19918;-57
2022/08/27 13:45:57;;;;;;;;;;;845.50;1228.80;;;;;;5070968;28;19909;-57
2022/08/27 13:48:23;;;;;;;;;;;845.40;1254.40;;;;;;5070791;28;19940;-57
2022/08/27 13:50:54;;;;;;;;;;;845.20;1228.80;;;;;;5070221;28;19912;-57